KMOX/MOX METAR and TAF weather

Enter ICAO airport designator
Station Type Date Time Source
KMOX METAR 2021/07/30 22:55 UTC NOAA

KMOX 302255Z AUTO 24005KT 7SM CLR 23/13 A3014 RMK AO2


Station Type Date Time Source
KMOX Decoded METAR 2021/07/30 22:55 UTC NOAA

Morris, Morris Municipal Airport, MN, United States (KMOX) 45-34N 095-58W
Jul 30, 2021 - 06:55 PM EDT / 2021.07.30 2255 UTC
Wind: from the WSW (240 degrees) at 6 MPH (5 KT):0
Visibility: 7 mile(s):0
Sky conditions: clear
Temperature: 73 F (23 C)
Dew Point: 55 F (13 C)
Relative Humidity: 53%
Pressure (altimeter): 30.14 in. Hg (1020 hPa)
ob: KMOX 302255Z AUTO 24005KT 7SM CLR 23/13 A3014 RMK AO2
cycle: 23

Station Type Date Time Source
KMOX TAF UTC NOAA

Error!

Example: see airport list